sensor_id;sensor_type;location;lat;lon;timestamp;P1;durP1;ratioP1;P2;durP2;ratioP2
2538;SDS011;1280;49.760;9.664;2023-11-21T13:51:16;8.53;;;2.37;;
2538;SDS011;1280;49.760;9.664;2023-11-21T13:53:44;7.83;;;2.37;;
2538;SDS011;1280;49.760;9.664;2023-11-21T13:56:14;5.67;;;2.30;;
2538;SDS011;1280;49.760;9.664;2023-11-21T13:58:47;6.23;;;2.00;;
2538;SDS011;1280;49.760;9.664;2023-11-21T14:01:18;7.20;;;2.70;;
2538;SDS011;1280;49.760;9.664;2023-11-21T14:04:20;6.57;;;2.47;;
2538;SDS011;1280;49.760;9.664;2023-11-21T14:07:03;5.73;;;2.90;;
2538;SDS011;1280;49.760;9.664;2023-11-21T14:09:47;14.50;;;7.03;;
2538;SDS011;1280;49.760;9.664;2023-11-21T14:12:18;14.83;;;6.80;;
2538;SDS011;1280;49.760;9.664;2023-11-21T14:14:46;12.57;;;5.87;;
2538;SDS011;1280;49.760;9.664;2023-11-21T14:17:15;14.80;;;5.40;;
2538;SDS011;1280;49.760;9.664;2023-11-21T14:19:44;16.27;;;4.70;;
2538;SDS011;1280;49.760;9.664;2023-11-21T14:22:13;13.30;;;5.93;;
2538;SDS011;1280;49.760;9.664;2023-11-21T14:24:45;9.43;;;3.03;;
2538;SDS011;1280;49.760;9.664;2023-11-21T14:27:14;8.03;;;3.13;;
2538;SDS011;1280;49.760;9.664;2023-11-21T14:29:42;10.50;;;3.13;;
2538;SDS011;1280;49.760;9.664;2023-11-21T14:32:12;6.40;;;2.30;;
2538;SDS011;1280;49.760;9.664;2023-11-21T14:34:41;8.87;;;3.87;;
2538;SDS011;1280;49.760;9.664;2023-11-21T14:37:13;13.20;;;3.77;;
2538;SDS011;1280;49.760;9.664;2023-11-21T14:39:41;10.23;;;4.00;;
2538;SDS011;1280;49.760;9.664;2023-11-21T14:42:12;7.33;;;3.47;;
2538;SDS011;1280;49.760;9.664;2023-11-21T14:44:42;8.40;;;4.27;;
2538;SDS011;1280;49.760;9.664;2023-11-21T14:47:10;12.70;;;5.27;;
2538;SDS011;1280;49.760;9.664;2023-11-21T14:49:42;10.60;;;4.60;;
2538;SDS011;1280;49.760;9.664;2023-11-21T14:52:20;10.20;;;4.67;;
2538;SDS011;1280;49.760;9.664;2023-11-21T14:55:02;11.57;;;5.60;;
2538;SDS011;1280;49.760;9.664;2023-11-21T14:57:57;17.43;;;5.87;;
2538;SDS011;1280;49.760;9.664;2023-11-21T15:00:29;17.40;;;7.30;;
2538;SDS011;1280;49.760;9.664;2023-11-21T15:10:40;10.03;;;3.57;;
2538;SDS011;1280;49.760;9.664;2023-11-21T15:13:15;14.87;;;5.20;;
2538;SDS011;1280;49.760;9.664;2023-11-21T15:15:42;11.67;;;6.00;;
2538;SDS011;1280;49.760;9.664;2023-11-21T15:18:10;13.60;;;4.50;;
2538;SDS011;1280;49.760;9.664;2023-11-21T15:20:40;11.93;;;4.37;;
2538;SDS011;1280;49.760;9.664;2023-11-21T15:23:09;15.83;;;6.83;;
2538;SDS011;1280;49.760;9.664;2023-11-21T15:25:40;25.20;;;9.47;;
2538;SDS011;1280;49.760;9.664;2023-11-21T15:28:08;42.13;;;15.50;;
2538;SDS011;1280;49.760;9.664;2023-11-21T15:30:39;66.87;;;25.10;;
2538;SDS011;1280;49.760;9.664;2023-11-21T15:36:26;14.70;;;7.80;;
2538;SDS011;1280;49.760;9.664;2023-11-21T15:38:54;11.63;;;7.87;;
2538;SDS011;1280;49.760;9.664;2023-11-21T15:41:23;16.97;;;7.90;;
2538;SDS011;1280;49.760;9.664;2023-11-21T15:43:54;17.20;;;6.97;;
2538;SDS011;1280;49.760;9.664;2023-11-21T15:46:28;14.37;;;7.10;;
2538;SDS011;1280;49.760;9.664;2023-11-21T15:48:56;14.60;;;5.17;;
2538;SDS011;1280;49.760;9.664;2023-11-21T15:51:24;12.80;;;4.30;;
2538;SDS011;1280;49.760;9.664;2023-11-21T15:53:53;12.10;;;4.17;;
2538;SDS011;1280;49.760;9.664;2023-11-21T15:56:21;9.63;;;3.83;;
2538;SDS011;1280;49.760;9.664;2023-11-21T15:58:50;12.93;;;3.63;;
2538;SDS011;1280;49.760;9.664;2023-11-21T16:01:18;8.97;;;3.63;;
2538;SDS011;1280;49.760;9.664;2023-11-21T16:03:48;13.80;;;4.40;;
2538;SDS011;1280;49.760;9.664;2023-11-21T16:06:18;10.67;;;4.40;;
2538;SDS011;1280;49.760;9.664;2023-11-21T16:08:47;11.80;;;4.50;;
2538;SDS011;1280;49.760;9.664;2023-11-21T16:11:15;12.43;;;4.90;;
2538;SDS011;1280;49.760;9.664;2023-11-21T16:13:43;12.67;;;4.67;;
2538;SDS011;1280;49.760;9.664;2023-11-21T16:16:14;18.33;;;7.80;;
2538;SDS011;1280;49.760;9.664;2023-11-21T16:18:44;12.77;;;6.40;;
2538;SDS011;1280;49.760;9.664;2023-11-21T16:21:12;19.07;;;5.57;;
2538;SDS011;1280;49.760;9.664;2023-11-21T16:23:41;12.90;;;5.00;;
2538;SDS011;1280;49.760;9.664;2023-11-21T16:26:10;11.37;;;3.80;;
2538;SDS011;1280;49.760;9.664;2023-11-21T16:28:39;10.70;;;4.37;;
2538;SDS011;1280;49.760;9.664;2023-11-21T16:31:08;12.30;;;4.90;;
2538;SDS011;1280;49.760;9.664;2023-11-21T16:33:38;16.10;;;5.93;;
2538;SDS011;1280;49.760;9.664;2023-11-21T16:36:07;14.10;;;5.00;;
2538;SDS011;1280;49.760;9.664;2023-11-21T16:38:36;11.00;;;4.80;;
2538;SDS011;1280;49.760;9.664;2023-11-21T16:41:04;16.33;;;4.93;;
2538;SDS011;1280;49.760;9.664;2023-11-21T16:43:34;11.80;;;5.07;;
2538;SDS011;1280;49.760;9.664;2023-11-21T16:46:03;14.10;;;6.00;;
2538;SDS011;1280;49.760;9.664;2023-11-21T16:48:31;14.10;;;5.33;;
2538;SDS011;1280;49.760;9.664;2023-11-21T16:51:01;19.53;;;6.73;;
2538;SDS011;1280;49.760;9.664;2023-11-21T16:53:29;14.73;;;5.40;;
2538;SDS011;1280;49.760;9.664;2023-11-21T16:55:57;9.57;;;4.50;;
2538;SDS011;1280;49.760;9.664;2023-11-21T16:58:27;10.30;;;4.77;;
2538;SDS011;1280;49.760;9.664;2023-11-21T17:00:55;12.37;;;5.10;;
2538;SDS011;1280;49.760;9.664;2023-11-21T17:03:24;12.37;;;4.80;;
2538;SDS011;1280;49.760;9.664;2023-11-21T17:05:53;14.73;;;5.30;;
2538;SDS011;1280;49.760;9.664;2023-11-21T17:08:23;11.33;;;4.87;;
2538;SDS011;1280;49.760;9.664;2023-11-21T17:10:51;14.30;;;4.53;;
2538;SDS011;1280;49.760;9.664;2023-11-21T17:13:19;10.93;;;4.50;;
2538;SDS011;1280;49.760;9.664;2023-11-21T17:15:49;12.83;;;4.83;;
2538;SDS011;1280;49.760;9.664;2023-11-21T17:18:18;9.83;;;4.60;;
2538;SDS011;1280;49.760;9.664;2023-11-21T17:20:46;14.20;;;4.83;;
2538;SDS011;1280;49.760;9.664;2023-11-21T17:23:16;8.97;;;4.23;;
2538;SDS011;1280;49.760;9.664;2023-11-21T17:25:45;10.47;;;5.13;;
2538;SDS011;1280;49.760;9.664;2023-11-21T17:28:13;11.20;;;5.03;;
2538;SDS011;1280;49.760;9.664;2023-11-21T17:30:47;13.73;;;4.70;;
2538;SDS011;1280;49.760;9.664;2023-11-21T17:33:15;12.57;;;5.00;;
2538;SDS011;1280;49.760;9.664;2023-11-21T17:35:45;8.57;;;4.20;;
2538;SDS011;1280;49.760;9.664;2023-11-21T17:38:13;13.90;;;5.47;;
2538;SDS011;1280;49.760;9.664;2023-11-21T17:40:41;11.83;;;5.07;;
2538;SDS011;1280;49.760;9.664;2023-11-21T17:43:12;13.77;;;4.43;;
2538;SDS011;1280;49.760;9.664;2023-11-21T17:45:40;12.70;;;5.03;;
2538;SDS011;1280;49.760;9.664;2023-11-21T17:48:08;8.40;;;4.70;;
2538;SDS011;1280;49.760;9.664;2023-11-21T17:50:37;11.17;;;4.93;;
2538;SDS011;1280;49.760;9.664;2023-11-21T17:53:05;10.50;;;4.93;;
2538;SDS011;1280;49.760;9.664;2023-11-21T17:55:34;14.53;;;4.70;;
2538;SDS011;1280;49.760;9.664;2023-11-21T17:58:02;11.70;;;5.50;;
2538;SDS011;1280;49.760;9.664;2023-11-21T18:00:31;13.00;;;5.97;;
2538;SDS011;1280;49.760;9.664;2023-11-21T18:03:00;12.40;;;5.67;;
2538;SDS011;1280;49.760;9.664;2023-11-21T18:05:29;12.60;;;5.03;;
2538;SDS011;1280;49.760;9.664;2023-11-21T18:07:58;12.17;;;5.63;;
2538;SDS011;1280;49.760;9.664;2023-11-21T18:10:26;12.17;;;6.20;;
2538;SDS011;1280;49.760;9.664;2023-11-21T18:12:54;12.47;;;5.90;;
2538;SDS011;1280;49.760;9.664;2023-11-21T18:15:22;15.47;;;6.47;;
2538;SDS011;1280;49.760;9.664;2023-11-21T18:17:52;10.13;;;5.80;;
2538;SDS011;1280;49.760;9.664;2023-11-21T18:20:20;10.50;;;5.27;;
2538;SDS011;1280;49.760;9.664;2023-11-21T18:22:48;13.50;;;6.17;;
2538;SDS011;1280;49.760;9.664;2023-11-21T18:25:19;10.53;;;6.00;;
2538;SDS011;1280;49.760;9.664;2023-11-21T18:27:51;15.17;;;7.10;;
2538;SDS011;1280;49.760;9.664;2023-11-21T18:30:19;12.57;;;6.50;;
2538;SDS011;1280;49.760;9.664;2023-11-21T18:32:47;13.60;;;6.80;;
2538;SDS011;1280;49.760;9.664;2023-11-21T18:35:17;12.87;;;5.80;;
2538;SDS011;1280;49.760;9.664;2023-11-21T18:37:46;14.50;;;7.30;;
2538;SDS011;1280;49.760;9.664;2023-11-21T18:40:15;11.97;;;6.10;;
2538;SDS011;1280;49.760;9.664;2023-11-21T18:42:43;17.10;;;6.60;;
2538;SDS011;1280;49.760;9.664;2023-11-21T18:45:12;15.47;;;6.80;;
2538;SDS011;1280;49.760;9.664;2023-11-21T18:47:40;12.90;;;6.30;;
2538;SDS011;1280;49.760;9.664;2023-11-21T18:50:08;15.83;;;6.83;;
2538;SDS011;1280;49.760;9.664;2023-11-21T18:52:45;11.10;;;6.70;;
2538;SDS011;1280;49.760;9.664;2023-11-21T18:55:13;23.03;;;16.40;;
2538;SDS011;1280;49.760;9.664;2023-11-21T18:57:41;15.43;;;8.40;;
2538;SDS011;1280;49.760;9.664;2023-11-21T19:00:09;14.83;;;7.63;;
2538;SDS011;1280;49.760;9.664;2023-11-21T19:02:41;12.40;;;6.80;;
2538;SDS011;1280;49.760;9.664;2023-11-21T19:05:09;12.73;;;7.40;;
2538;SDS011;1280;49.760;9.664;2023-11-21T19:07:38;14.17;;;7.87;;
2538;SDS011;1280;49.760;9.664;2023-11-21T19:10:07;17.60;;;7.33;;
2538;SDS011;1280;49.760;9.664;2023-11-21T19:12:38;12.03;;;7.53;;
2538;SDS011;1280;49.760;9.664;2023-11-21T19:15:06;16.07;;;7.10;;
2538;SDS011;1280;49.760;9.664;2023-11-21T19:17:35;17.73;;;7.67;;
2538;SDS011;1280;49.760;9.664;2023-11-21T19:20:07;13.40;;;6.90;;
2538;SDS011;1280;49.760;9.664;2023-11-21T19:22:37;16.83;;;7.50;;
2538;SDS011;1280;49.760;9.664;2023-11-21T19:25:06;11.63;;;6.40;;
2538;SDS011;1280;49.760;9.664;2023-11-21T19:27:37;16.30;;;6.63;;
2538;SDS011;1280;49.760;9.664;2023-11-21T19:30:06;15.60;;;7.17;;
2538;SDS011;1280;49.760;9.664;2023-11-21T19:32:37;15.80;;;7.40;;
2538;SDS011;1280;49.760;9.664;2023-11-21T19:35:06;10.47;;;6.13;;
2538;SDS011;1280;49.760;9.664;2023-11-21T19:37:36;18.93;;;7.10;;
2538;SDS011;1280;49.760;9.664;2023-11-21T19:40:04;15.10;;;7.57;;
2538;SDS011;1280;49.760;9.664;2023-11-21T19:42:34;11.33;;;6.67;;
2538;SDS011;1280;49.760;9.664;2023-11-21T19:45:05;9.40;;;5.70;;
2538;SDS011;1280;49.760;9.664;2023-11-21T19:47:35;14.70;;;6.60;;
2538;SDS011;1280;49.760;9.664;2023-11-21T19:50:06;14.20;;;7.43;;
2538;SDS011;1280;49.760;9.664;2023-11-21T19:52:36;10.73;;;6.40;;
2538;SDS011;1280;49.760;9.664;2023-11-21T19:55:04;7.50;;;3.67;;
2538;SDS011;1280;49.760;9.664;2023-11-21T19:57:35;8.60;;;3.40;;
2538;SDS011;1280;49.760;9.664;2023-11-21T20:00:04;5.27;;;2.73;;
2538;SDS011;1280;49.760;9.664;2023-11-21T20:02:38;16.40;;;6.80;;
2538;SDS011;1280;49.760;9.664;2023-11-21T20:05:07;4.13;;;1.93;;
2538;SDS011;1280;49.760;9.664;2023-11-21T20:07:37;11.83;;;5.50;;
2538;SDS011;1280;49.760;9.664;2023-11-21T20:10:08;10.93;;;5.33;;
2538;SDS011;1280;49.760;9.664;2023-11-21T20:12:38;5.07;;;2.60;;
2538;SDS011;1280;49.760;9.664;2023-11-21T20:15:06;6.30;;;2.33;;
2538;SDS011;1280;49.760;9.664;2023-11-21T20:17:35;5.80;;;2.90;;
2538;SDS011;1280;49.760;9.664;2023-11-21T20:20:05;4.60;;;2.60;;
2538;SDS011;1280;49.760;9.664;2023-11-21T20:22:33;6.33;;;3.27;;
2538;SDS011;1280;49.760;9.664;2023-11-21T20:25:02;8.43;;;2.87;;
2538;SDS011;1280;49.760;9.664;2023-11-21T20:30:05;5.03;;;2.50;;
2538;SDS011;1280;49.760;9.664;2023-11-21T20:32:36;5.40;;;3.13;;
2538;SDS011;1280;49.760;9.664;2023-11-21T20:35:05;10.43;;;5.17;;
2538;SDS011;1280;49.760;9.664;2023-11-21T20:37:34;12.37;;;6.73;;
2538;SDS011;1280;49.760;9.664;2023-11-21T20:40:02;9.50;;;5.30;;
2538;SDS011;1280;49.760;9.664;2023-11-21T20:42:33;9.70;;;5.17;;
2538;SDS011;1280;49.760;9.664;2023-11-21T20:45:02;5.87;;;3.50;;
2538;SDS011;1280;49.760;9.664;2023-11-21T20:47:32;8.10;;;3.20;;
2538;SDS011;1280;49.760;9.664;2023-11-21T20:50:01;14.53;;;5.87;;
2538;SDS011;1280;49.760;9.664;2023-11-21T20:52:29;10.17;;;4.73;;
2538;SDS011;1280;49.760;9.664;2023-11-21T20:54:59;14.30;;;6.70;;
2538;SDS011;1280;49.760;9.664;2023-11-21T20:57:28;25.40;;;9.90;;
2538;SDS011;1280;49.760;9.664;2023-11-21T20:59:57;10.77;;;5.40;;
2538;SDS011;1280;49.760;9.664;2023-11-21T21:02:26;6.67;;;3.73;;
2538;SDS011;1280;49.760;9.664;2023-11-21T21:04:56;6.47;;;3.40;;
2538;SDS011;1280;49.760;9.664;2023-11-21T21:07:24;7.10;;;3.80;;
2538;SDS011;1280;49.760;9.664;2023-11-21T21:09:52;6.17;;;3.53;;
2538;SDS011;1280;49.760;9.664;2023-11-21T21:12:20;5.90;;;3.20;;
2538;SDS011;1280;49.760;9.664;2023-11-21T21:14:48;5.83;;;3.40;;
2538;SDS011;1280;49.760;9.664;2023-11-21T21:17:16;5.90;;;3.00;;
2538;SDS011;1280;49.760;9.664;2023-11-21T21:19:44;5.60;;;3.27;;
2538;SDS011;1280;49.760;9.664;2023-11-21T21:22:14;12.00;;;3.83;;
2538;SDS011;1280;49.760;9.664;2023-11-21T21:24:42;6.90;;;3.57;;
2538;SDS011;1280;49.760;9.664;2023-11-21T21:27:10;7.20;;;4.37;;
2538;SDS011;1280;49.760;9.664;2023-11-21T21:29:39;5.23;;;3.00;;
2538;SDS011;1280;49.760;9.664;2023-11-21T21:32:08;6.13;;;3.37;;
2538;SDS011;1280;49.760;9.664;2023-11-21T21:34:35;7.77;;;4.17;;
2538;SDS011;1280;49.760;9.664;2023-11-21T21:37:05;7.50;;;4.03;;
2538;SDS011;1280;49.760;9.664;2023-11-21T21:39:34;7.50;;;4.30;;
2538;SDS011;1280;49.760;9.664;2023-11-21T21:42:03;8.77;;;4.07;;
2538;SDS011;1280;49.760;9.664;2023-11-21T21:44:31;9.37;;;3.77;;
2538;SDS011;1280;49.760;9.664;2023-11-21T21:46:59;7.23;;;3.90;;
2538;SDS011;1280;49.760;9.664;2023-11-21T21:49:27;6.77;;;4.17;;
2538;SDS011;1280;49.760;9.664;2023-11-21T21:51:55;10.27;;;4.70;;
2538;SDS011;1280;49.760;9.664;2023-11-21T21:54:23;5.83;;;3.63;;
2538;SDS011;1280;49.760;9.664;2023-11-21T21:56:54;6.63;;;3.70;;
2538;SDS011;1280;49.760;9.664;2023-11-21T21:59:22;9.77;;;4.70;;
2538;SDS011;1280;49.760;9.664;2023-11-21T22:01:50;7.87;;;4.13;;
2538;SDS011;1280;49.760;9.664;2023-11-21T22:04:20;7.77;;;4.67;;
2538;SDS011;1280;49.760;9.664;2023-11-21T22:06:49;7.20;;;4.17;;
2538;SDS011;1280;49.760;9.664;2023-11-21T22:09:17;7.97;;;4.37;;
2538;SDS011;1280;49.760;9.664;2023-11-21T22:11:45;6.23;;;3.60;;
2538;SDS011;1280;49.760;9.664;2023-11-21T22:14:15;7.63;;;4.13;;
2538;SDS011;1280;49.760;9.664;2023-11-21T22:16:43;9.30;;;4.32;;
2538;SDS011;1280;49.760;9.664;2023-11-21T22:19:11;6.30;;;4.10;;
2538;SDS011;1280;49.760;9.664;2023-11-21T22:21:41;8.57;;;4.50;;
2538;SDS011;1280;49.760;9.664;2023-11-21T22:24:09;7.17;;;4.50;;
2538;SDS011;1280;49.760;9.664;2023-11-21T22:26:37;8.40;;;4.93;;
2538;SDS011;1280;49.760;9.664;2023-11-21T22:29:05;10.30;;;5.85;;
2538;SDS011;1280;49.760;9.664;2023-11-21T22:31:35;9.77;;;4.93;;
2538;SDS011;1280;49.760;9.664;2023-11-21T22:34:07;8.73;;;5.90;;
2538;SDS011;1280;49.760;9.664;2023-11-21T22:36:35;9.40;;;5.78;;
2538;SDS011;1280;49.760;9.664;2023-11-21T22:39:03;6.57;;;4.37;;
2538;SDS011;1280;49.760;9.664;2023-11-21T22:41:32;10.15;;;6.70;;
2538;SDS011;1280;49.760;9.664;2023-11-21T22:44:00;10.87;;;6.20;;
2538;SDS011;1280;49.760;9.664;2023-11-21T22:46:28;10.10;;;6.80;;
2538;SDS011;1280;49.760;9.664;2023-11-21T22:48:58;12.13;;;8.07;;
2538;SDS011;1280;49.760;9.664;2023-11-21T22:51:26;7.68;;;4.93;;
2538;SDS011;1280;49.760;9.664;2023-11-21T22:53:54;10.23;;;5.57;;
2538;SDS011;1280;49.760;9.664;2023-11-21T22:56:22;7.80;;;5.10;;
2538;SDS011;1280;49.760;9.664;2023-11-21T22:58:52;7.70;;;5.30;;
2538;SDS011;1280;49.760;9.664;2023-11-21T23:01:22;10.50;;;7.50;;
2538;SDS011;1280;49.760;9.664;2023-11-21T23:03:50;14.18;;;9.35;;
2538;SDS011;1280;49.760;9.664;2023-11-21T23:06:21;7.30;;;5.28;;
2538;SDS011;1280;49.760;9.664;2023-11-21T23:08:50;9.88;;;5.85;;
2538;SDS011;1280;49.760;9.664;2023-11-21T23:11:18;7.50;;;4.75;;
2538;SDS011;1280;49.760;9.664;2023-11-21T23:13:47;8.30;;;4.57;;
2538;SDS011;1280;49.760;9.664;2023-11-21T23:16:16;8.07;;;4.67;;
2538;SDS011;1280;49.760;9.664;2023-11-21T23:18:44;9.85;;;5.40;;
2538;SDS011;1280;49.760;9.664;2023-11-21T23:21:16;8.10;;;4.80;;
2538;SDS011;1280;49.760;9.664;2023-11-21T23:23:45;8.17;;;4.83;;
2538;SDS011;1280;49.760;9.664;2023-11-21T23:26:14;7.87;;;4.73;;
2538;SDS011;1280;49.760;9.664;2023-11-21T23:28:44;7.70;;;5.00;;
2538;SDS011;1280;49.760;9.664;2023-11-21T23:31:12;7.20;;;4.77;;
2538;SDS011;1280;49.760;9.664;2023-11-21T23:33:40;9.63;;;4.67;;
2538;SDS011;1280;49.760;9.664;2023-11-21T23:36:08;9.83;;;4.67;;
2538;SDS011;1280;49.760;9.664;2023-11-21T23:38:35;7.87;;;4.60;;
2538;SDS011;1280;49.760;9.664;2023-11-21T23:41:09;7.50;;;4.40;;
2538;SDS011;1280;49.760;9.664;2023-11-21T23:43:37;8.00;;;3.95;;
2538;SDS011;1280;49.760;9.664;2023-11-21T23:46:05;7.23;;;4.03;;
2538;SDS011;1280;49.760;9.664;2023-11-21T23:48:33;10.75;;;4.80;;
2538;SDS011;1280;49.760;9.664;2023-11-21T23:51:01;7.40;;;4.50;;
2538;SDS011;1280;49.760;9.664;2023-11-21T23:53:29;6.57;;;4.03;;
2538;SDS011;1280;49.760;9.664;2023-11-21T23:55:57;8.30;;;4.00;;
2538;SDS011;1280;49.760;9.664;2023-11-21T23:58:27;8.68;;;4.00;;
